sensor_id;sensor_type;location;lat;lon;timestamp;P1;durP1;ratioP1;P2;durP2;ratioP2
54871;SDS011;43914;57.680;11.982;2023-06-26T00:02:03;7.00;;;3.00;;
54871;SDS011;43914;57.680;11.982;2023-06-26T00:04:29;8.40;;;4.00;;
54871;SDS011;43914;57.680;11.982;2023-06-26T00:06:55;8.90;;;3.50;;
54871;SDS011;43914;57.680;11.982;2023-06-26T00:09:21;7.70;;;3.50;;
54871;SDS011;43914;57.680;11.982;2023-06-26T00:11:46;8.30;;;3.40;;
54871;SDS011;43914;57.680;11.982;2023-06-26T00:14:12;7.50;;;3.40;;
54871;SDS011;43914;57.680;11.982;2023-06-26T00:16:37;7.70;;;3.40;;
54871;SDS011;43914;57.680;11.982;2023-06-26T00:19:03;8.00;;;3.40;;
54871;SDS011;43914;57.680;11.982;2023-06-26T00:21:28;6.90;;;3.40;;
54871;SDS011;43914;57.680;11.982;2023-06-26T00:23:54;8.00;;;3.40;;
54871;SDS011;43914;57.680;11.982;2023-06-26T00:26:19;8.00;;;3.40;;
54871;SDS011;43914;57.680;11.982;2023-06-26T00:28:45;7.10;;;3.30;;
54871;SDS011;43914;57.680;11.982;2023-06-26T00:31:10;7.70;;;3.90;;
54871;SDS011;43914;57.680;11.982;2023-06-26T00:33:36;7.20;;;3.40;;
54871;SDS011;43914;57.680;11.982;2023-06-26T00:36:01;7.90;;;3.30;;
54871;SDS011;43914;57.680;11.982;2023-06-26T00:38:27;9.00;;;3.80;;
54871;SDS011;43914;57.680;11.982;2023-06-26T00:40:52;9.60;;;4.10;;
54871;SDS011;43914;57.680;11.982;2023-06-26T00:43:19;7.00;;;3.30;;
54871;SDS011;43914;57.680;11.982;2023-06-26T00:45:45;7.90;;;3.70;;
54871;SDS011;43914;57.680;11.982;2023-06-26T00:48:11;7.00;;;3.40;;
54871;SDS011;43914;57.680;11.982;2023-06-26T00:50:37;7.20;;;3.60;;
54871;SDS011;43914;57.680;11.982;2023-06-26T00:53:03;8.00;;;3.80;;
54871;SDS011;43914;57.680;11.982;2023-06-26T00:55:29;7.60;;;3.50;;
54871;SDS011;43914;57.680;11.982;2023-06-26T00:57:54;8.50;;;3.40;;
54871;SDS011;43914;57.680;11.982;2023-06-26T01:00:21;8.50;;;3.50;;
54871;SDS011;43914;57.680;11.982;2023-06-26T01:02:47;6.60;;;3.00;;
54871;SDS011;43914;57.680;11.982;2023-06-26T01:05:13;7.00;;;3.00;;
54871;SDS011;43914;57.680;11.982;2023-06-26T01:07:49;8.50;;;3.50;;
54871;SDS011;43914;57.680;11.982;2023-06-26T01:10:16;7.10;;;3.20;;
54871;SDS011;43914;57.680;11.982;2023-06-26T01:12:42;9.50;;;3.60;;
54871;SDS011;43914;57.680;11.982;2023-06-26T01:15:09;10.30;;;3.70;;
54871;SDS011;43914;57.680;11.982;2023-06-26T01:17:36;7.00;;;3.20;;
54871;SDS011;43914;57.680;11.982;2023-06-26T01:20:03;7.70;;;3.40;;
54871;SDS011;43914;57.680;11.982;2023-06-26T01:25:17;7.70;;;3.20;;
54871;SDS011;43914;57.680;11.982;2023-06-26T01:28:06;8.00;;;3.30;;
54871;SDS011;43914;57.680;11.982;2023-06-26T01:30:41;6.90;;;3.30;;
54871;SDS011;43914;57.680;11.982;2023-06-26T01:33:09;7.00;;;3.20;;
54871;SDS011;43914;57.680;11.982;2023-06-26T01:35:37;6.20;;;2.90;;
54871;SDS011;43914;57.680;11.982;2023-06-26T01:38:13;7.10;;;3.20;;
54871;SDS011;43914;57.680;11.982;2023-06-26T01:40:40;6.60;;;2.90;;
54871;SDS011;43914;57.680;11.982;2023-06-26T01:43:06;7.90;;;3.20;;
54871;SDS011;43914;57.680;11.982;2023-06-26T01:45:48;7.30;;;3.00;;
54871;SDS011;43914;57.680;11.982;2023-06-26T01:48:17;7.70;;;3.20;;
54871;SDS011;43914;57.680;11.982;2023-06-26T01:50:47;7.40;;;3.60;;
54871;SDS011;43914;57.680;11.982;2023-06-26T01:53:20;9.40;;;3.60;;
54871;SDS011;43914;57.680;11.982;2023-06-26T01:55:55;6.90;;;3.30;;
54871;SDS011;43914;57.680;11.982;2023-06-26T01:58:26;6.70;;;3.10;;
54871;SDS011;43914;57.680;11.982;2023-06-26T02:00:53;8.70;;;3.20;;
54871;SDS011;43914;57.680;11.982;2023-06-26T02:03:19;7.80;;;3.80;;
54871;SDS011;43914;57.680;11.982;2023-06-26T02:05:45;7.80;;;3.40;;
54871;SDS011;43914;57.680;11.982;2023-06-26T02:08:13;6.90;;;3.20;;
54871;SDS011;43914;57.680;11.982;2023-06-26T02:10:40;6.50;;;3.20;;
54871;SDS011;43914;57.680;11.982;2023-06-26T02:13:06;7.20;;;3.40;;
54871;SDS011;43914;57.680;11.982;2023-06-26T02:15:31;6.80;;;3.50;;
54871;SDS011;43914;57.680;11.982;2023-06-26T02:17:57;7.00;;;3.60;;
54871;SDS011;43914;57.680;11.982;2023-06-26T02:20:23;7.00;;;3.40;;
54871;SDS011;43914;57.680;11.982;2023-06-26T02:22:49;7.20;;;3.50;;
54871;SDS011;43914;57.680;11.982;2023-06-26T02:25:15;7.00;;;3.60;;
54871;SDS011;43914;57.680;11.982;2023-06-26T02:27:40;8.90;;;3.40;;
54871;SDS011;43914;57.680;11.982;2023-06-26T02:30:08;8.00;;;3.60;;
54871;SDS011;43914;57.680;11.982;2023-06-26T02:32:34;7.10;;;3.30;;
54871;SDS011;43914;57.680;11.982;2023-06-26T02:35:00;7.80;;;3.70;;
54871;SDS011;43914;57.680;11.982;2023-06-26T02:37:25;7.40;;;3.50;;
54871;SDS011;43914;57.680;11.982;2023-06-26T02:39:51;8.10;;;3.40;;
54871;SDS011;43914;57.680;11.982;2023-06-26T02:42:16;7.60;;;3.50;;
54871;SDS011;43914;57.680;11.982;2023-06-26T02:44:42;7.10;;;3.50;;
54871;SDS011;43914;57.680;11.982;2023-06-26T02:47:08;7.20;;;3.40;;
54871;SDS011;43914;57.680;11.982;2023-06-26T02:49:33;7.60;;;3.30;;
54871;SDS011;43914;57.680;11.982;2023-06-26T02:51:59;7.20;;;3.40;;
54871;SDS011;43914;57.680;11.982;2023-06-26T02:54:24;8.10;;;3.30;;
54871;SDS011;43914;57.680;11.982;2023-06-26T02:56:50;7.30;;;3.40;;
54871;SDS011;43914;57.680;11.982;2023-06-26T02:59:15;7.80;;;3.60;;
54871;SDS011;43914;57.680;11.982;2023-06-26T03:01:41;7.40;;;3.50;;
54871;SDS011;43914;57.680;11.982;2023-06-26T03:04:06;7.00;;;3.40;;
54871;SDS011;43914;57.680;11.982;2023-06-26T03:06:33;6.60;;;2.90;;
54871;SDS011;43914;57.680;11.982;2023-06-26T03:08:58;7.60;;;3.50;;
54871;SDS011;43914;57.680;11.982;2023-06-26T03:11:24;7.00;;;3.20;;
54871;SDS011;43914;57.680;11.982;2023-06-26T03:13:49;8.80;;;3.30;;
54871;SDS011;43914;57.680;11.982;2023-06-26T03:16:15;7.30;;;3.50;;
54871;SDS011;43914;57.680;11.982;2023-06-26T03:18:40;7.80;;;3.30;;
54871;SDS011;43914;57.680;11.982;2023-06-26T03:21:06;7.20;;;3.10;;
54871;SDS011;43914;57.680;11.982;2023-06-26T03:23:31;6.90;;;3.20;;
54871;SDS011;43914;57.680;11.982;2023-06-26T03:25:57;7.50;;;3.20;;
54871;SDS011;43914;57.680;11.982;2023-06-26T03:28:22;6.60;;;3.00;;
54871;SDS011;43914;57.680;11.982;2023-06-26T03:30:48;8.30;;;3.60;;
54871;SDS011;43914;57.680;11.982;2023-06-26T03:33:13;7.00;;;3.40;;
54871;SDS011;43914;57.680;11.982;2023-06-26T03:35:39;7.00;;;3.40;;
54871;SDS011;43914;57.680;11.982;2023-06-26T03:38:04;7.20;;;3.20;;
54871;SDS011;43914;57.680;11.982;2023-06-26T03:40:31;7.70;;;3.50;;
54871;SDS011;43914;57.680;11.982;2023-06-26T03:42:56;7.50;;;3.30;;
54871;SDS011;43914;57.680;11.982;2023-06-26T03:45:22;6.70;;;3.10;;
54871;SDS011;43914;57.680;11.982;2023-06-26T03:47:48;6.80;;;3.20;;
54871;SDS011;43914;57.680;11.982;2023-06-26T03:50:15;7.00;;;3.20;;
54871;SDS011;43914;57.680;11.982;2023-06-26T03:52:41;7.00;;;3.30;;
54871;SDS011;43914;57.680;11.982;2023-06-26T03:55:07;6.90;;;3.20;;
54871;SDS011;43914;57.680;11.982;2023-06-26T03:57:33;7.50;;;3.40;;
54871;SDS011;43914;57.680;11.982;2023-06-26T03:59:59;6.50;;;3.00;;
54871;SDS011;43914;57.680;11.982;2023-06-26T04:02:25;6.50;;;2.90;;
54871;SDS011;43914;57.680;11.982;2023-06-26T04:04:51;6.80;;;3.10;;
54871;SDS011;43914;57.680;11.982;2023-06-26T04:07:17;7.00;;;3.00;;
54871;SDS011;43914;57.680;11.982;2023-06-26T04:09:43;7.80;;;3.30;;
54871;SDS011;43914;57.680;11.982;2023-06-26T04:12:09;7.90;;;3.30;;
54871;SDS011;43914;57.680;11.982;2023-06-26T04:14:35;7.30;;;3.00;;
54871;SDS011;43914;57.680;11.982;2023-06-26T04:17:00;8.20;;;3.30;;
54871;SDS011;43914;57.680;11.982;2023-06-26T04:19:29;7.00;;;3.10;;
54871;SDS011;43914;57.680;11.982;2023-06-26T04:21:55;7.00;;;3.30;;
54871;SDS011;43914;57.680;11.982;2023-06-26T04:24:21;10.10;;;3.40;;
54871;SDS011;43914;57.680;11.982;2023-06-26T04:26:47;6.70;;;2.70;;
54871;SDS011;43914;57.680;11.982;2023-06-26T04:29:12;9.80;;;3.30;;
54871;SDS011;43914;57.680;11.982;2023-06-26T04:31:38;6.90;;;2.90;;
54871;SDS011;43914;57.680;11.982;2023-06-26T04:34:04;7.10;;;3.10;;
54871;SDS011;43914;57.680;11.982;2023-06-26T04:36:30;7.60;;;3.20;;
54871;SDS011;43914;57.680;11.982;2023-06-26T04:38:56;8.30;;;3.40;;
54871;SDS011;43914;57.680;11.982;2023-06-26T04:41:24;6.50;;;3.00;;
54871;SDS011;43914;57.680;11.982;2023-06-26T04:43:49;7.20;;;3.30;;
54871;SDS011;43914;57.680;11.982;2023-06-26T04:46:15;7.40;;;2.80;;
54871;SDS011;43914;57.680;11.982;2023-06-26T04:48:41;6.80;;;2.90;;
54871;SDS011;43914;57.680;11.982;2023-06-26T04:51:10;6.60;;;3.10;;
54871;SDS011;43914;57.680;11.982;2023-06-26T04:53:36;7.70;;;3.10;;
54871;SDS011;43914;57.680;11.982;2023-06-26T04:56:02;7.40;;;3.20;;
54871;SDS011;43914;57.680;11.982;2023-06-26T04:58:28;7.20;;;3.30;;
54871;SDS011;43914;57.680;11.982;2023-06-26T05:00:53;7.00;;;2.90;;
54871;SDS011;43914;57.680;11.982;2023-06-26T05:03:20;7.80;;;3.60;;
54871;SDS011;43914;57.680;11.982;2023-06-26T05:05:47;7.00;;;2.90;;
54871;SDS011;43914;57.680;11.982;2023-06-26T05:08:13;7.60;;;3.30;;
54871;SDS011;43914;57.680;11.982;2023-06-26T05:10:42;7.90;;;2.90;;
54871;SDS011;43914;57.680;11.982;2023-06-26T05:13:08;7.00;;;3.10;;
54871;SDS011;43914;57.680;11.982;2023-06-26T05:15:33;7.20;;;3.30;;
54871;SDS011;43914;57.680;11.982;2023-06-26T05:17:59;6.70;;;3.10;;
54871;SDS011;43914;57.680;11.982;2023-06-26T05:20:25;8.50;;;3.00;;
54871;SDS011;43914;57.680;11.982;2023-06-26T05:22:50;8.00;;;3.00;;
54871;SDS011;43914;57.680;11.982;2023-06-26T05:25:17;7.10;;;3.30;;
54871;SDS011;43914;57.680;11.982;2023-06-26T05:27:46;6.70;;;3.20;;
54871;SDS011;43914;57.680;11.982;2023-06-26T05:30:13;8.00;;;3.20;;
54871;SDS011;43914;57.680;11.982;2023-06-26T05:32:39;8.20;;;3.40;;
54871;SDS011;43914;57.680;11.982;2023-06-26T05:35:06;7.80;;;3.50;;
54871;SDS011;43914;57.680;11.982;2023-06-26T05:37:35;10.10;;;3.80;;
54871;SDS011;43914;57.680;11.982;2023-06-26T05:40:01;7.80;;;3.40;;
54871;SDS011;43914;57.680;11.982;2023-06-26T05:42:29;8.60;;;3.80;;
54871;SDS011;43914;57.680;11.982;2023-06-26T05:44:55;7.10;;;3.20;;
54871;SDS011;43914;57.680;11.982;2023-06-26T05:47:21;6.60;;;2.90;;
54871;SDS011;43914;57.680;11.982;2023-06-26T05:49:46;6.90;;;2.80;;
54871;SDS011;43914;57.680;11.982;2023-06-26T05:52:12;6.80;;;2.70;;
54871;SDS011;43914;57.680;11.982;2023-06-26T05:54:39;9.60;;;3.20;;
54871;SDS011;43914;57.680;11.982;2023-06-26T05:57:05;7.80;;;2.70;;
54871;SDS011;43914;57.680;11.982;2023-06-26T05:59:32;6.70;;;2.90;;
54871;SDS011;43914;57.680;11.982;2023-06-26T06:01:59;6.10;;;2.60;;
54871;SDS011;43914;57.680;11.982;2023-06-26T06:04:24;6.60;;;2.80;;
54871;SDS011;43914;57.680;11.982;2023-06-26T06:06:51;5.70;;;2.60;;
54871;SDS011;43914;57.680;11.982;2023-06-26T06:09:16;7.30;;;2.60;;
54871;SDS011;43914;57.680;11.982;2023-06-26T06:11:42;7.00;;;2.70;;
54871;SDS011;43914;57.680;11.982;2023-06-26T06:14:07;7.90;;;2.70;;
54871;SDS011;43914;57.680;11.982;2023-06-26T06:16:33;7.70;;;2.90;;
54871;SDS011;43914;57.680;11.982;2023-06-26T06:18:59;6.90;;;3.00;;
54871;SDS011;43914;57.680;11.982;2023-06-26T06:21:25;10.90;;;2.80;;
54871;SDS011;43914;57.680;11.982;2023-06-26T06:23:50;7.40;;;2.40;;
54871;SDS011;43914;57.680;11.982;2023-06-26T06:26:16;14.70;;;2.80;;
54871;SDS011;43914;57.680;11.982;2023-06-26T06:28:41;18.40;;;2.50;;
54871;SDS011;43914;57.680;11.982;2023-06-26T06:31:07;9.70;;;2.30;;
54871;SDS011;43914;57.680;11.982;2023-06-26T06:33:33;11.80;;;2.60;;
54871;SDS011;43914;57.680;11.982;2023-06-26T06:35:59;5.60;;;2.10;;
54871;SDS011;43914;57.680;11.982;2023-06-26T06:38:25;8.40;;;2.20;;
54871;SDS011;43914;57.680;11.982;2023-06-26T06:40:50;6.80;;;1.80;;
54871;SDS011;43914;57.680;11.982;2023-06-26T06:43:16;6.60;;;2.10;;
54871;SDS011;43914;57.680;11.982;2023-06-26T06:45:41;8.80;;;2.30;;
54871;SDS011;43914;57.680;11.982;2023-06-26T06:48:07;9.70;;;2.60;;
54871;SDS011;43914;57.680;11.982;2023-06-26T06:50:32;6.30;;;2.20;;
54871;SDS011;43914;57.680;11.982;2023-06-26T06:52:58;9.10;;;2.40;;
54871;SDS011;43914;57.680;11.982;2023-06-26T06:55:24;9.40;;;2.60;;
54871;SDS011;43914;57.680;11.982;2023-06-26T06:57:51;7.10;;;2.30;;
54871;SDS011;43914;57.680;11.982;2023-06-26T07:00:18;12.00;;;2.90;;
54871;SDS011;43914;57.680;11.982;2023-06-26T07:02:44;14.40;;;3.10;;
54871;SDS011;43914;57.680;11.982;2023-06-26T07:05:11;7.30;;;2.40;;
54871;SDS011;43914;57.680;11.982;2023-06-26T07:07:38;7.30;;;2.70;;
54871;SDS011;43914;57.680;11.982;2023-06-26T07:10:07;8.80;;;3.10;;
54871;SDS011;43914;57.680;11.982;2023-06-26T07:12:35;9.10;;;2.90;;
54871;SDS011;43914;57.680;11.982;2023-06-26T07:15:02;7.60;;;3.00;;
54871;SDS011;43914;57.680;11.982;2023-06-26T07:17:30;10.20;;;2.80;;
54871;SDS011;43914;57.680;11.982;2023-06-26T07:19:56;8.20;;;2.70;;
54871;SDS011;43914;57.680;11.982;2023-06-26T07:22:21;8.10;;;3.00;;
54871;SDS011;43914;57.680;11.982;2023-06-26T07:24:48;7.10;;;2.70;;
54871;SDS011;43914;57.680;11.982;2023-06-26T07:27:17;9.70;;;2.70;;
54871;SDS011;43914;57.680;11.982;2023-06-26T07:29:45;6.70;;;2.90;;
54871;SDS011;43914;57.680;11.982;2023-06-26T07:32:11;6.50;;;2.70;;
54871;SDS011;43914;57.680;11.982;2023-06-26T07:34:37;7.10;;;3.00;;
54871;SDS011;43914;57.680;11.982;2023-06-26T07:37:02;7.40;;;2.80;;
54871;SDS011;43914;57.680;11.982;2023-06-26T07:39:29;8.20;;;3.00;;
54871;SDS011;43914;57.680;11.982;2023-06-26T07:41:55;9.20;;;3.10;;
54871;SDS011;43914;57.680;11.982;2023-06-26T07:44:23;8.80;;;3.30;;
54871;SDS011;43914;57.680;11.982;2023-06-26T07:46:49;8.80;;;3.30;;
54871;SDS011;43914;57.680;11.982;2023-06-26T07:49:14;7.90;;;3.80;;
54871;SDS011;43914;57.680;11.982;2023-06-26T07:51:40;11.20;;;3.30;;
54871;SDS011;43914;57.680;11.982;2023-06-26T07:54:05;8.40;;;3.60;;
54871;SDS011;43914;57.680;11.982;2023-06-26T07:59:20;9.50;;;3.50;;
54871;SDS011;43914;57.680;11.982;2023-06-26T08:01:47;12.90;;;3.80;;
54871;SDS011;43914;57.680;11.982;2023-06-26T08:04:13;11.00;;;3.70;;
54871;SDS011;43914;57.680;11.982;2023-06-26T08:06:38;8.00;;;3.50;;
54871;SDS011;43914;57.680;11.982;2023-06-26T08:09:08;8.40;;;3.60;;
54871;SDS011;43914;57.680;11.982;2023-06-26T08:11:33;11.30;;;3.70;;
54871;SDS011;43914;57.680;11.982;2023-06-26T08:13:59;8.10;;;4.00;;
54871;SDS011;43914;57.680;11.982;2023-06-26T08:16:25;10.60;;;3.20;;
54871;SDS011;43914;57.680;11.982;2023-06-26T08:18:51;8.50;;;3.00;;
54871;SDS011;43914;57.680;11.982;2023-06-26T08:21:17;7.00;;;3.00;;
54871;SDS011;43914;57.680;11.982;2023-06-26T08:23:42;7.50;;;3.20;;
54871;SDS011;43914;57.680;11.982;2023-06-26T08:26:08;7.50;;;3.10;;
54871;SDS011;43914;57.680;11.982;2023-06-26T08:28:33;6.40;;;2.90;;
54871;SDS011;43914;57.680;11.982;2023-06-26T08:30:59;7.00;;;2.80;;
54871;SDS011;43914;57.680;11.982;2023-06-26T08:33:25;7.00;;;2.70;;
54871;SDS011;43914;57.680;11.982;2023-06-26T08:35:52;7.90;;;2.90;;
54871;SDS011;43914;57.680;11.982;2023-06-26T08:38:17;6.30;;;2.60;;
54871;SDS011;43914;57.680;11.982;2023-06-26T08:40:46;6.70;;;2.90;;
54871;SDS011;43914;57.680;11.982;2023-06-26T08:43:12;8.20;;;3.20;;
54871;SDS011;43914;57.680;11.982;2023-06-26T08:45:37;7.60;;;2.90;;
54871;SDS011;43914;57.680;11.982;2023-06-26T08:48:03;8.50;;;2.80;;
54871;SDS011;43914;57.680;11.982;2023-06-26T08:50:35;6.10;;;2.30;;
54871;SDS011;43914;57.680;11.982;2023-06-26T08:53:04;8.10;;;2.50;;
54871;SDS011;43914;57.680;11.982;2023-06-26T08:55:41;6.50;;;2.40;;
54871;SDS011;43914;57.680;11.982;2023-06-26T08:58:08;7.10;;;2.70;;
54871;SDS011;43914;57.680;11.982;2023-06-26T09:00:34;7.70;;;2.80;;
54871;SDS011;43914;57.680;11.982;2023-06-26T09:03:01;6.30;;;2.50;;
54871;SDS011;43914;57.680;11.982;2023-06-26T09:05:30;7.90;;;2.80;;
54871;SDS011;43914;57.680;11.982;2023-06-26T09:07:58;7.20;;;2.80;;
54871;SDS011;43914;57.680;11.982;2023-06-26T09:10:24;6.50;;;2.90;;
54871;SDS011;43914;57.680;11.982;2023-06-26T09:12:50;10.60;;;3.20;;
54871;SDS011;43914;57.680;11.982;2023-06-26T09:15:16;7.50;;;2.90;;
54871;SDS011;43914;57.680;11.982;2023-06-26T09:17:44;8.20;;;3.30;;
54871;SDS011;43914;57.680;11.982;2023-06-26T09:20:10;7.40;;;3.30;;
54871;SDS011;43914;57.680;11.982;2023-06-26T09:22:36;7.50;;;3.00;;
54871;SDS011;43914;57.680;11.982;2023-06-26T09:25:04;6.70;;;3.10;;
54871;SDS011;43914;57.680;11.982;2023-06-26T09:27:31;9.50;;;3.30;;
54871;SDS011;43914;57.680;11.982;2023-06-26T09:29:57;6.90;;;3.10;;
54871;SDS011;43914;57.680;11.982;2023-06-26T09:32:26;8.10;;;3.10;;
54871;SDS011;43914;57.680;11.982;2023-06-26T09:34:55;6.90;;;3.30;;
54871;SDS011;43914;57.680;11.982;2023-06-26T09:37:21;9.00;;;3.50;;
54871;SDS011;43914;57.680;11.982;2023-06-26T09:39:47;6.20;;;3.10;;
54871;SDS011;43914;57.680;11.982;2023-06-26T09:42:14;12.50;;;3.20;;
54871;SDS011;43914;57.680;11.982;2023-06-26T09:44:47;7.40;;;3.40;;
54871;SDS011;43914;57.680;11.982;2023-06-26T09:47:16;8.40;;;3.30;;
54871;SDS011;43914;57.680;11.982;2023-06-26T09:49:44;8.00;;;3.50;;
54871;SDS011;43914;57.680;11.982;2023-06-26T09:52:13;8.20;;;3.00;;
54871;SDS011;43914;57.680;11.982;2023-06-26T09:54:43;8.70;;;3.40;;
54871;SDS011;43914;57.680;11.982;2023-06-26T09:57:16;7.60;;;3.40;;
54871;SDS011;43914;57.680;11.982;2023-06-26T09:59:42;7.90;;;3.60;;
54871;SDS011;43914;57.680;11.982;2023-06-26T10:02:11;8.80;;;3.50;;
54871;SDS011;43914;57.680;11.982;2023-06-26T10:04:37;9.30;;;3.50;;
54871;SDS011;43914;57.680;11.982;2023-06-26T10:07:06;7.70;;;3.00;;
54871;SDS011;43914;57.680;11.982;2023-06-26T10:09:38;10.90;;;3.60;;
54871;SDS011;43914;57.680;11.982;2023-06-26T10:12:29;8.30;;;2.80;;
54871;SDS011;43914;57.680;11.982;2023-06-26T10:14:56;6.90;;;2.60;;
54871;SDS011;43914;57.680;11.982;2023-06-26T10:17:24;6.90;;;2.80;;
54871;SDS011;43914;57.680;11.982;2023-06-26T10:19:54;6.00;;;2.70;;
54871;SDS011;43914;57.680;11.982;2023-06-26T10:22:25;8.10;;;3.00;;
54871;SDS011;43914;57.680;11.982;2023-06-26T10:24:55;6.50;;;2.60;;
54871;SDS011;43914;57.680;11.982;2023-06-26T10:27:25;8.40;;;2.80;;
54871;SDS011;43914;57.680;11.982;2023-06-26T10:30:00;8.70;;;3.10;;
54871;SDS011;43914;57.680;11.982;2023-06-26T10:32:30;7.30;;;2.40;;
54871;SDS011;43914;57.680;11.982;2023-06-26T10:34:57;6.80;;;2.70;;
54871;SDS011;43914;57.680;11.982;2023-06-26T10:37:42;6.50;;;2.60;;
54871;SDS011;43914;57.680;11.982;2023-06-26T10:40:09;7.40;;;2.70;;
54871;SDS011;43914;57.680;11.982;2023-06-26T10:42:35;6.10;;;2.40;;
54871;SDS011;43914;57.680;11.982;2023-06-26T10:45:14;9.30;;;2.90;;
54871;SDS011;43914;57.680;11.982;2023-06-26T10:47:45;5.80;;;2.40;;
54871;SDS011;43914;57.680;11.982;2023-06-26T10:52:44;8.80;;;2.80;;
54871;SDS011;43914;57.680;11.982;2023-06-26T10:55:10;7.00;;;2.40;;
54871;SDS011;43914;57.680;11.982;2023-06-26T10:57:36;7.50;;;2.50;;
54871;SDS011;43914;57.680;11.982;2023-06-26T11:00:10;7.20;;;2.70;;
54871;SDS011;43914;57.680;11.982;2023-06-26T11:02:52;6.70;;;3.00;;
54871;SDS011;43914;57.680;11.982;2023-06-26T11:05:28;6.10;;;2.50;;
54871;SDS011;43914;57.680;11.982;2023-06-26T11:08:07;7.60;;;2.60;;
54871;SDS011;43914;57.680;11.982;2023-06-26T11:10:52;6.30;;;2.40;;
54871;SDS011;43914;57.680;11.982;2023-06-26T11:13:18;5.10;;;2.10;;
54871;SDS011;43914;57.680;11.982;2023-06-26T11:15:48;7.10;;;2.70;;
54871;SDS011;43914;57.680;11.982;2023-06-26T11:18:15;6.30;;;2.70;;
54871;SDS011;43914;57.680;11.982;2023-06-26T11:20:41;6.80;;;2.50;;
54871;SDS011;43914;57.680;11.982;2023-06-26T11:23:10;9.20;;;2.70;;
54871;SDS011;43914;57.680;11.982;2023-06-26T11:25:37;6.70;;;2.80;;
54871;SDS011;43914;57.680;11.982;2023-06-26T11:28:04;7.60;;;3.00;;
54871;SDS011;43914;57.680;11.982;2023-06-26T11:30:34;8.00;;;2.80;;
54871;SDS011;43914;57.680;11.982;2023-06-26T11:33:06;6.50;;;2.70;;
54871;SDS011;43914;57.680;11.982;2023-06-26T11:35:35;10.70;;;3.10;;
54871;SDS011;43914;57.680;11.982;2023-06-26T11:38:03;7.00;;;2.80;;
54871;SDS011;43914;57.680;11.982;2023-06-26T11:40:35;8.90;;;3.00;;
54871;SDS011;43914;57.680;11.982;2023-06-26T11:43:02;9.00;;;2.70;;
54871;SDS011;43914;57.680;11.982;2023-06-26T11:45:29;9.70;;;3.00;;
54871;SDS011;43914;57.680;11.982;2023-06-26T11:47:56;9.30;;;3.00;;
54871;SDS011;43914;57.680;11.982;2023-06-26T11:50:23;7.40;;;3.00;;
54871;SDS011;43914;57.680;11.982;2023-06-26T11:52:55;9.50;;;2.70;;
54871;SDS011;43914;57.680;11.982;2023-06-26T11:57:54;7.40;;;3.00;;
54871;SDS011;43914;57.680;11.982;2023-06-26T12:00:22;8.70;;;2.90;;
54871;SDS011;43914;57.680;11.982;2023-06-26T12:02:47;6.40;;;2.50;;
54871;SDS011;43914;57.680;11.982;2023-06-26T12:05:15;33.50;;;3.50;;
54871;SDS011;43914;57.680;11.982;2023-06-26T12:07:50;7.00;;;2.80;;
54871;SDS011;43914;57.680;11.982;2023-06-26T12:10:16;8.20;;;2.30;;
54871;SDS011;43914;57.680;11.982;2023-06-26T12:12:44;7.30;;;2.90;;
54871;SDS011;43914;57.680;11.982;2023-06-26T12:15:15;7.70;;;2.90;;
54871;SDS011;43914;57.680;11.982;2023-06-26T12:17:41;8.50;;;2.70;;
54871;SDS011;43914;57.680;11.982;2023-06-26T12:20:17;7.10;;;2.60;;
54871;SDS011;43914;57.680;11.982;2023-06-26T12:22:45;7.10;;;2.80;;
54871;SDS011;43914;57.680;11.982;2023-06-26T12:25:12;7.00;;;2.80;;
54871;SDS011;43914;57.680;11.982;2023-06-26T12:27:38;8.40;;;2.30;;
54871;SDS011;43914;57.680;11.982;2023-06-26T12:30:04;8.30;;;2.70;;
54871;SDS011;43914;57.680;11.982;2023-06-26T12:32:30;7.20;;;3.00;;
54871;SDS011;43914;57.680;11.982;2023-06-26T12:34:57;8.80;;;2.90;;
54871;SDS011;43914;57.680;11.982;2023-06-26T12:37:24;7.70;;;3.60;;
54871;SDS011;43914;57.680;11.982;2023-06-26T12:39:50;7.00;;;3.30;;
54871;SDS011;43914;57.680;11.982;2023-06-26T12:44:47;7.50;;;4.00;;
54871;SDS011;43914;57.680;11.982;2023-06-26T12:47:14;7.10;;;3.00;;
54871;SDS011;43914;57.680;11.982;2023-06-26T12:49:41;9.70;;;3.80;;
54871;SDS011;43914;57.680;11.982;2023-06-26T12:52:09;8.00;;;3.40;;
54871;SDS011;43914;57.680;11.982;2023-06-26T12:54:36;8.40;;;3.80;;
54871;SDS011;43914;57.680;11.982;2023-06-26T12:57:03;8.30;;;3.60;;
54871;SDS011;43914;57.680;11.982;2023-06-26T12:59:29;8.50;;;3.40;;
54871;SDS011;43914;57.680;11.982;2023-06-26T13:01:56;8.90;;;3.70;;
54871;SDS011;43914;57.680;11.982;2023-06-26T13:04:22;8.50;;;4.00;;
54871;SDS011;43914;57.680;11.982;2023-06-26T13:06:47;8.90;;;3.70;;
54871;SDS011;43914;57.680;11.982;2023-06-26T13:09:13;7.20;;;3.00;;
54871;SDS011;43914;57.680;11.982;2023-06-26T13:11:38;7.40;;;3.20;;
54871;SDS011;43914;57.680;11.982;2023-06-26T13:14:04;10.00;;;3.70;;
54871;SDS011;43914;57.680;11.982;2023-06-26T13:16:29;10.00;;;3.30;;
54871;SDS011;43914;57.680;11.982;2023-06-26T13:18:55;7.70;;;3.60;;
54871;SDS011;43914;57.680;11.982;2023-06-26T13:21:23;7.10;;;3.40;;
54871;SDS011;43914;57.680;11.982;2023-06-26T13:23:48;8.40;;;3.70;;
54871;SDS011;43914;57.680;11.982;2023-06-26T13:26:14;6.70;;;3.30;;
54871;SDS011;43914;57.680;11.982;2023-06-26T13:28:39;8.10;;;3.20;;
54871;SDS011;43914;57.680;11.982;2023-06-26T13:31:05;7.70;;;3.30;;
54871;SDS011;43914;57.680;11.982;2023-06-26T13:33:31;12.60;;;3.30;;
54871;SDS011;43914;57.680;11.982;2023-06-26T13:35:57;13.30;;;4.30;;
54871;SDS011;43914;57.680;11.982;2023-06-26T13:38:23;9.40;;;4.10;;
54871;SDS011;43914;57.680;11.982;2023-06-26T13:40:50;12.40;;;3.50;;
54871;SDS011;43914;57.680;11.982;2023-06-26T13:43:20;7.50;;;3.10;;
54871;SDS011;43914;57.680;11.982;2023-06-26T13:45:47;7.50;;;3.40;;
54871;SDS011;43914;57.680;11.982;2023-06-26T13:48:13;7.60;;;3.10;;
54871;SDS011;43914;57.680;11.982;2023-06-26T13:50:39;7.10;;;3.30;;
54871;SDS011;43914;57.680;11.982;2023-06-26T13:53:04;8.80;;;3.20;;
54871;SDS011;43914;57.680;11.982;2023-06-26T13:55:31;8.80;;;3.10;;
54871;SDS011;43914;57.680;11.982;2023-06-26T13:57:57;9.70;;;3.00;;
54871;SDS011;43914;57.680;11.982;2023-06-26T14:00:23;9.80;;;2.50;;
54871;SDS011;43914;57.680;11.982;2023-06-26T14:02:49;10.50;;;3.20;;
54871;SDS011;43914;57.680;11.982;2023-06-26T14:05:14;11.30;;;3.00;;
54871;SDS011;43914;57.680;11.982;2023-06-26T14:07:40;14.10;;;4.30;;
54871;SDS011;43914;57.680;11.982;2023-06-26T14:10:06;8.70;;;3.20;;
54871;SDS011;43914;57.680;11.982;2023-06-26T14:12:33;10.70;;;3.10;;
54871;SDS011;43914;57.680;11.982;2023-06-26T14:14:59;10.00;;;3.00;;
54871;SDS011;43914;57.680;11.982;2023-06-26T14:17:25;8.50;;;2.80;;
54871;SDS011;43914;57.680;11.982;2023-06-26T14:19:53;10.10;;;2.90;;
54871;SDS011;43914;57.680;11.982;2023-06-26T14:22:19;10.80;;;3.00;;
54871;SDS011;43914;57.680;11.982;2023-06-26T14:24:45;13.50;;;3.40;;
54871;SDS011;43914;57.680;11.982;2023-06-26T14:27:10;13.40;;;3.30;;
54871;SDS011;43914;57.680;11.982;2023-06-26T14:29:36;16.50;;;3.80;;
54871;SDS011;43914;57.680;11.982;2023-06-26T14:32:02;16.10;;;3.50;;
54871;SDS011;43914;57.680;11.982;2023-06-26T14:34:28;25.40;;;4.60;;
54871;SDS011;43914;57.680;11.982;2023-06-26T14:36:53;32.70;;;4.50;;
54871;SDS011;43914;57.680;11.982;2023-06-26T14:39:19;18.30;;;4.40;;
54871;SDS011;43914;57.680;11.982;2023-06-26T14:41:44;16.30;;;3.70;;
54871;SDS011;43914;57.680;11.982;2023-06-26T14:44:10;17.20;;;3.80;;
54871;SDS011;43914;57.680;11.982;2023-06-26T14:46:36;14.60;;;4.10;;